sensor_id;sensor_type;location;lat;lon;timestamp;temperature;humidity
19972;DHT22;10147;16.402;102.848;2024-01-11T00:00:58;22.90;99.90
19972;DHT22;10147;16.402;102.848;2024-01-11T00:03:29;23.00;99.90
19972;DHT22;10147;16.402;102.848;2024-01-11T00:06:01;23.20;99.90
19972;DHT22;10147;16.402;102.848;2024-01-11T00:08:31;22.90;99.90
19972;DHT22;10147;16.402;102.848;2024-01-11T00:11:02;22.90;99.90
19972;DHT22;10147;16.402;102.848;2024-01-11T00:13:33;23.20;99.90
19972;DHT22;10147;16.402;102.848;2024-01-11T00:16:03;23.10;99.90
19972;DHT22;10147;16.402;102.848;2024-01-11T00:18:33;23.30;99.90
19972;DHT22;10147;16.402;102.848;2024-01-11T00:21:03;23.50;99.90
19972;DHT22;10147;16.402;102.848;2024-01-11T00:23:33;23.20;99.90
19972;DHT22;10147;16.402;102.848;2024-01-11T00:26:03;23.40;99.90
19972;DHT22;10147;16.402;102.848;2024-01-11T00:28:34;23.60;99.90
19972;DHT22;10147;16.402;102.848;2024-01-11T00:31:04;23.80;99.90
19972;DHT22;10147;16.402;102.848;2024-01-11T00:33:34;23.80;99.90
19972;DHT22;10147;16.402;102.848;2024-01-11T00:36:04;23.90;99.90
19972;DHT22;10147;16.402;102.848;2024-01-11T00:38:34;23.90;99.90
19972;DHT22;10147;16.402;102.848;2024-01-11T00:41:05;24.00;99.90
19972;DHT22;10147;16.402;102.848;2024-01-11T00:43:35;24.10;99.90
19972;DHT22;10147;16.402;102.848;2024-01-11T00:46:05;24.20;99.90
19972;DHT22;10147;16.402;102.848;2024-01-11T00:48:35;24.30;99.90
19972;DHT22;10147;16.402;102.848;2024-01-11T00:51:05;24.30;99.90
19972;DHT22;10147;16.402;102.848;2024-01-11T00:53:36;24.40;99.90
19972;DHT22;10147;16.402;102.848;2024-01-11T00:56:18;24.50;99.90
19972;DHT22;10147;16.402;102.848;2024-01-11T00:58:49;24.10;99.90
19972;DHT22;10147;16.402;102.848;2024-01-11T01:01:19;24.10;99.90
19972;DHT22;10147;16.402;102.848;2024-01-11T01:03:52;24.30;99.90
19972;DHT22;10147;16.402;102.848;2024-01-11T01:06:23;24.40;99.90
19972;DHT22;10147;16.402;102.848;2024-01-11T01:08:55;24.50;99.90
19972;DHT22;10147;16.402;102.848;2024-01-11T01:11:25;24.60;99.90
19972;DHT22;10147;16.402;102.848;2024-01-11T01:13:55;24.60;99.90
19972;DHT22;10147;16.402;102.848;2024-01-11T01:16:25;24.60;99.90
19972;DHT22;10147;16.402;102.848;2024-01-11T01:18:55;24.70;99.90
19972;DHT22;10147;16.402;102.848;2024-01-11T01:21:26;24.80;99.90
19972;DHT22;10147;16.402;102.848;2024-01-11T01:23:56;24.90;99.90
19972;DHT22;10147;16.402;102.848;2024-01-11T01:26:26;24.90;99.90
19972;DHT22;10147;16.402;102.848;2024-01-11T01:28:56;24.80;99.90
19972;DHT22;10147;16.402;102.848;2024-01-11T01:31:26;24.90;99.90
19972;DHT22;10147;16.402;102.848;2024-01-11T01:33:56;25.00;99.90
19972;DHT22;10147;16.402;102.848;2024-01-11T01:36:26;25.10;99.90
19972;DHT22;10147;16.402;102.848;2024-01-11T01:38:59;25.20;99.90
19972;DHT22;10147;16.402;102.848;2024-01-11T01:41:29;25.40;99.90
19972;DHT22;10147;16.402;102.848;2024-01-11T01:43:59;25.30;99.90
19972;DHT22;10147;16.402;102.848;2024-01-11T01:46:29;25.30;99.90
19972;DHT22;10147;16.402;102.848;2024-01-11T01:48:59;25.30;99.90
19972;DHT22;10147;16.402;102.848;2024-01-11T01:51:31;25.40;99.90
19972;DHT22;10147;16.402;102.848;2024-01-11T01:54:04;25.40;99.90
19972;DHT22;10147;16.402;102.848;2024-01-11T01:56:35;25.50;99.90
19972;DHT22;10147;16.402;102.848;2024-01-11T01:59:05;25.60;99.90
19972;DHT22;10147;16.402;102.848;2024-01-11T02:01:35;25.60;99.90
19972;DHT22;10147;16.402;102.848;2024-01-11T02:04:06;25.70;99.90
19972;DHT22;10147;16.402;102.848;2024-01-11T02:06:36;25.90;99.90
19972;DHT22;10147;16.402;102.848;2024-01-11T02:09:08;26.00;99.90
19972;DHT22;10147;16.402;102.848;2024-01-11T02:11:39;26.10;99.90
19972;DHT22;10147;16.402;102.848;2024-01-11T02:14:11;26.10;99.90
19972;DHT22;10147;16.402;102.848;2024-01-11T02:16:41;26.10;99.90
19972;DHT22;10147;16.402;102.848;2024-01-11T02:19:13;26.10;99.90
19972;DHT22;10147;16.402;102.848;2024-01-11T02:21:44;26.20;99.90
19972;DHT22;10147;16.402;102.848;2024-01-11T02:24:16;26.10;99.90
19972;DHT22;10147;16.402;102.848;2024-01-11T02:27:06;26.20;99.90
19972;DHT22;10147;16.402;102.848;2024-01-11T02:29:36;26.20;99.90
19972;DHT22;10147;16.402;102.848;2024-01-11T02:32:07;26.40;99.90
19972;DHT22;10147;16.402;102.848;2024-01-11T02:34:38;26.60;99.90
19972;DHT22;10147;16.402;102.848;2024-01-11T02:37:09;26.50;99.90
19972;DHT22;10147;16.402;102.848;2024-01-11T02:39:39;26.70;99.90
19972;DHT22;10147;16.402;102.848;2024-01-11T02:42:10;26.80;99.90
19972;DHT22;10147;16.402;102.848;2024-01-11T02:44:40;27.00;99.90
19972;DHT22;10147;16.402;102.848;2024-01-11T02:47:10;27.10;99.90
19972;DHT22;10147;16.402;102.848;2024-01-11T02:49:40;27.00;99.90
19972;DHT22;10147;16.402;102.848;2024-01-11T02:52:10;27.10;99.90
19972;DHT22;10147;16.402;102.848;2024-01-11T02:54:40;27.20;99.90
19972;DHT22;10147;16.402;102.848;2024-01-11T02:57:11;27.30;99.90
19972;DHT22;10147;16.402;102.848;2024-01-11T02:59:43;27.30;99.90
19972;DHT22;10147;16.402;102.848;2024-01-11T03:02:13;27.30;99.90
19972;DHT22;10147;16.402;102.848;2024-01-11T03:04:43;27.50;99.90
19972;DHT22;10147;16.402;102.848;2024-01-11T03:07:13;27.60;99.90
19972;DHT22;10147;16.402;102.848;2024-01-11T03:09:43;27.60;99.90
19972;DHT22;10147;16.402;102.848;2024-01-11T03:12:13;27.70;99.90
19972;DHT22;10147;16.402;102.848;2024-01-11T03:14:43;27.80;99.90
19972;DHT22;10147;16.402;102.848;2024-01-11T03:17:13;27.90;99.90
19972;DHT22;10147;16.402;102.848;2024-01-11T03:19:43;27.90;99.90
19972;DHT22;10147;16.402;102.848;2024-01-11T03:22:14;28.10;99.90
19972;DHT22;10147;16.402;102.848;2024-01-11T03:24:44;28.30;99.90
19972;DHT22;10147;16.402;102.848;2024-01-11T03:27:14;28.30;99.90
19972;DHT22;10147;16.402;102.848;2024-01-11T03:29:43;28.40;99.90
19972;DHT22;10147;16.402;102.848;2024-01-11T03:32:14;28.50;99.90
19972;DHT22;10147;16.402;102.848;2024-01-11T03:34:44;28.70;99.90
19972;DHT22;10147;16.402;102.848;2024-01-11T03:37:14;28.70;99.90
19972;DHT22;10147;16.402;102.848;2024-01-11T03:39:44;28.70;99.90
19972;DHT22;10147;16.402;102.848;2024-01-11T03:42:14;28.90;99.90
19972;DHT22;10147;16.402;102.848;2024-01-11T03:44:44;29.00;99.90
19972;DHT22;10147;16.402;102.848;2024-01-11T03:47:14;28.70;99.90
19972;DHT22;10147;16.402;102.848;2024-01-11T03:49:44;28.70;99.90
19972;DHT22;10147;16.402;102.848;2024-01-11T03:52:14;28.90;99.90
19972;DHT22;10147;16.402;102.848;2024-01-11T03:54:47;28.90;99.90
19972;DHT22;10147;16.402;102.848;2024-01-11T03:57:21;29.00;99.90
19972;DHT22;10147;16.402;102.848;2024-01-11T03:59:51;28.90;99.90
19972;DHT22;10147;16.402;102.848;2024-01-11T04:02:21;29.20;99.90
19972;DHT22;10147;16.402;102.848;2024-01-11T04:04:51;29.60;99.90
19972;DHT22;10147;16.402;102.848;2024-01-11T04:07:23;29.50;99.90
19972;DHT22;10147;16.402;102.848;2024-01-11T04:09:55;29.70;99.90
19972;DHT22;10147;16.402;102.848;2024-01-11T04:12:25;29.80;99.90
19972;DHT22;10147;16.402;102.848;2024-01-11T04:14:55;29.80;99.90
19972;DHT22;10147;16.402;102.848;2024-01-11T04:17:25;29.40;99.90
19972;DHT22;10147;16.402;102.848;2024-01-11T04:19:55;29.40;99.90
19972;DHT22;10147;16.402;102.848;2024-01-11T04:22:27;29.70;99.90
19972;DHT22;10147;16.402;102.848;2024-01-11T04:24:57;29.80;99.90
19972;DHT22;10147;16.402;102.848;2024-01-11T04:27:27;29.80;99.90
19972;DHT22;10147;16.402;102.848;2024-01-11T04:29:57;29.60;99.90
19972;DHT22;10147;16.402;102.848;2024-01-11T04:32:27;29.70;99.90
19972;DHT22;10147;16.402;102.848;2024-01-11T04:34:57;29.80;99.90
19972;DHT22;10147;16.402;102.848;2024-01-11T04:37:30;30.10;99.90
19972;DHT22;10147;16.402;102.848;2024-01-11T04:40:02;30.00;99.90
19972;DHT22;10147;16.402;102.848;2024-01-11T04:42:33;30.10;99.90
19972;DHT22;10147;16.402;102.848;2024-01-11T04:45:03;30.10;99.90
19972;DHT22;10147;16.402;102.848;2024-01-11T04:47:34;30.10;99.90
19972;DHT22;10147;16.402;102.848;2024-01-11T04:50:05;30.10;99.90
19972;DHT22;10147;16.402;102.848;2024-01-11T04:52:35;30.40;99.90
19972;DHT22;10147;16.402;102.848;2024-01-11T04:55:05;30.60;99.90
19972;DHT22;10147;16.402;102.848;2024-01-11T04:57:36;30.70;99.90
19972;DHT22;10147;16.402;102.848;2024-01-11T05:00:07;30.90;99.90
19972;DHT22;10147;16.402;102.848;2024-01-11T05:02:37;30.90;99.90
19972;DHT22;10147;16.402;102.848;2024-01-11T05:05:07;31.00;99.90
19972;DHT22;10147;16.402;102.848;2024-01-11T05:07:37;30.70;99.90
19972;DHT22;10147;16.402;102.848;2024-01-11T05:10:08;30.50;99.90
19972;DHT22;10147;16.402;102.848;2024-01-11T05:12:38;30.60;99.90
19972;DHT22;10147;16.402;102.848;2024-01-11T05:15:08;30.70;99.90
19972;DHT22;10147;16.402;102.848;2024-01-11T05:17:38;31.00;99.90
19972;DHT22;10147;16.402;102.848;2024-01-11T05:20:08;31.00;99.90
19972;DHT22;10147;16.402;102.848;2024-01-11T05:22:40;31.10;99.90
19972;DHT22;10147;16.402;102.848;2024-01-11T05:25:10;31.20;99.90
19972;DHT22;10147;16.402;102.848;2024-01-11T05:27:40;31.00;99.90
19972;DHT22;10147;16.402;102.848;2024-01-11T05:30:10;31.00;99.90
19972;DHT22;10147;16.402;102.848;2024-01-11T05:32:40;31.00;99.90
19972;DHT22;10147;16.402;102.848;2024-01-11T05:35:10;31.20;99.90
19972;DHT22;10147;16.402;102.848;2024-01-11T05:37:41;31.40;99.90
19972;DHT22;10147;16.402;102.848;2024-01-11T05:40:11;31.40;99.90
19972;DHT22;10147;16.402;102.848;2024-01-11T05:42:41;31.60;99.90
19972;DHT22;10147;16.402;102.848;2024-01-11T05:45:11;31.40;99.90
19972;DHT22;10147;16.402;102.848;2024-01-11T05:47:46;31.50;99.90
19972;DHT22;10147;16.402;102.848;2024-01-11T05:50:16;31.70;99.90
19972;DHT22;10147;16.402;102.848;2024-01-11T05:52:46;31.90;99.90
19972;DHT22;10147;16.402;102.848;2024-01-11T05:55:18;31.90;99.90
19972;DHT22;10147;16.402;102.848;2024-01-11T05:57:49;31.90;99.90
19972;DHT22;10147;16.402;102.848;2024-01-11T06:00:19;32.00;99.90
19972;DHT22;10147;16.402;102.848;2024-01-11T06:02:50;31.90;99.90
19972;DHT22;10147;16.402;102.848;2024-01-11T06:05:19;31.90;99.90
19972;DHT22;10147;16.402;102.848;2024-01-11T06:07:50;32.00;99.90
19972;DHT22;10147;16.402;102.848;2024-01-11T06:10:20;32.00;99.90
19972;DHT22;10147;16.402;102.848;2024-01-11T06:12:50;32.30;99.90
19972;DHT22;10147;16.402;102.848;2024-01-11T06:15:20;32.30;99.90
19972;DHT22;10147;16.402;102.848;2024-01-11T06:17:50;32.50;99.90
19972;DHT22;10147;16.402;102.848;2024-01-11T06:20:20;32.50;99.90
19972;DHT22;10147;16.402;102.848;2024-01-11T06:22:51;32.40;99.90
19972;DHT22;10147;16.402;102.848;2024-01-11T06:25:21;32.40;99.90
19972;DHT22;10147;16.402;102.848;2024-01-11T06:27:51;32.50;99.90
19972;DHT22;10147;16.402;102.848;2024-01-11T06:30:21;32.40;99.90
19972;DHT22;10147;16.402;102.848;2024-01-11T06:32:52;32.60;99.90
19972;DHT22;10147;16.402;102.848;2024-01-11T06:35:22;32.70;99.90
19972;DHT22;10147;16.402;102.848;2024-01-11T06:37:52;32.80;99.90
19972;DHT22;10147;16.402;102.848;2024-01-11T06:40:24;32.60;99.90
19972;DHT22;10147;16.402;102.848;2024-01-11T06:42:54;32.60;99.90
19972;DHT22;10147;16.402;102.848;2024-01-11T06:45:24;32.90;99.90
19972;DHT22;10147;16.402;102.848;2024-01-11T06:47:55;32.80;99.90
19972;DHT22;10147;16.402;102.848;2024-01-11T06:50:26;32.70;99.90
19972;DHT22;10147;16.402;102.848;2024-01-11T06:52:57;32.90;99.90
19972;DHT22;10147;16.402;102.848;2024-01-11T06:55:28;33.10;99.90
19972;DHT22;10147;16.402;102.848;2024-01-11T06:57:58;33.30;99.90
19972;DHT22;10147;16.402;102.848;2024-01-11T07:00:28;33.20;99.90
19972;DHT22;10147;16.402;102.848;2024-01-11T07:02:59;33.30;99.90
19972;DHT22;10147;16.402;102.848;2024-01-11T07:05:29;33.30;99.90
19972;DHT22;10147;16.402;102.848;2024-01-11T07:07:59;33.40;99.90
19972;DHT22;10147;16.402;102.848;2024-01-11T07:10:29;33.50;99.90
19972;DHT22;10147;16.402;102.848;2024-01-11T07:12:59;33.30;99.90
19972;DHT22;10147;16.402;102.848;2024-01-11T07:15:29;33.50;99.90
19972;DHT22;10147;16.402;102.848;2024-01-11T07:17:59;33.50;99.90
19972;DHT22;10147;16.402;102.848;2024-01-11T07:20:29;33.00;99.90
19972;DHT22;10147;16.402;102.848;2024-01-11T07:23:00;33.30;99.90
19972;DHT22;10147;16.402;102.848;2024-01-11T07:25:30;33.40;99.90
19972;DHT22;10147;16.402;102.848;2024-01-11T07:28:02;33.60;99.90
19972;DHT22;10147;16.402;102.848;2024-01-11T07:30:32;33.70;99.90
19972;DHT22;10147;16.402;102.848;2024-01-11T07:33:02;33.60;99.90
19972;DHT22;10147;16.402;102.848;2024-01-11T07:35:35;33.50;99.90
19972;DHT22;10147;16.402;102.848;2024-01-11T07:38:06;33.80;99.90
19972;DHT22;10147;16.402;102.848;2024-01-11T07:40:36;33.90;99.90
19972;DHT22;10147;16.402;102.848;2024-01-11T07:43:10;34.00;99.90
19972;DHT22;10147;16.402;102.848;2024-01-11T07:45:41;33.80;99.90
19972;DHT22;10147;16.402;102.848;2024-01-11T07:48:11;33.80;99.90
19972;DHT22;10147;16.402;102.848;2024-01-11T07:50:41;33.50;99.90
19972;DHT22;10147;16.402;102.848;2024-01-11T07:53:12;33.40;99.90
19972;DHT22;10147;16.402;102.848;2024-01-11T07:55:44;33.60;99.90
19972;DHT22;10147;16.402;102.848;2024-01-11T07:58:17;33.50;99.90
19972;DHT22;10147;16.402;102.848;2024-01-11T08:00:48;33.70;99.90
19972;DHT22;10147;16.402;102.848;2024-01-11T08:03:18;33.70;99.90
19972;DHT22;10147;16.402;102.848;2024-01-11T08:05:48;33.70;99.90
19972;DHT22;10147;16.402;102.848;2024-01-11T08:08:20;33.80;99.90
19972;DHT22;10147;16.402;102.848;2024-01-11T08:10:52;33.70;99.90
19972;DHT22;10147;16.402;102.848;2024-01-11T08:13:21;33.80;99.90
19972;DHT22;10147;16.402;102.848;2024-01-11T08:15:52;33.80;99.90
19972;DHT22;10147;16.402;102.848;2024-01-11T08:18:23;33.80;99.90
19972;DHT22;10147;16.402;102.848;2024-01-11T08:20:54;33.80;99.90
19972;DHT22;10147;16.402;102.848;2024-01-11T08:23:24;33.50;99.90
19972;DHT22;10147;16.402;102.848;2024-01-11T08:25:55;33.60;99.90
19972;DHT22;10147;16.402;102.848;2024-01-11T08:28:25;33.40;99.90
19972;DHT22;10147;16.402;102.848;2024-01-11T08:30:55;33.60;99.90
19972;DHT22;10147;16.402;102.848;2024-01-11T08:33:26;33.60;99.90
19972;DHT22;10147;16.402;102.848;2024-01-11T08:35:56;33.60;99.90
19972;DHT22;10147;16.402;102.848;2024-01-11T08:38:27;33.70;99.90
19972;DHT22;10147;16.402;102.848;2024-01-11T08:40:58;33.70;99.90
19972;DHT22;10147;16.402;102.848;2024-01-11T08:43:28;33.70;99.90
19972;DHT22;10147;16.402;102.848;2024-01-11T08:45:59;33.60;99.90
19972;DHT22;10147;16.402;102.848;2024-01-11T08:48:31;33.50;99.90
19972;DHT22;10147;16.402;102.848;2024-01-11T08:51:01;33.70;99.90
19972;DHT22;10147;16.402;102.848;2024-01-11T08:53:31;33.60;99.90
19972;DHT22;10147;16.402;102.848;2024-01-11T08:56:02;33.30;99.90
19972;DHT22;10147;16.402;102.848;2024-01-11T08:58:33;33.40;99.90
19972;DHT22;10147;16.402;102.848;2024-01-11T09:01:03;33.40;99.90
19972;DHT22;10147;16.402;102.848;2024-01-11T09:03:33;33.50;99.90
19972;DHT22;10147;16.402;102.848;2024-01-11T09:06:04;33.20;99.90
19972;DHT22;10147;16.402;102.848;2024-01-11T09:08:34;33.20;99.90
19972;DHT22;10147;16.402;102.848;2024-01-11T09:11:05;33.20;99.90
19972;DHT22;10147;16.402;102.848;2024-01-11T09:13:35;33.20;99.90
19972;DHT22;10147;16.402;102.848;2024-01-11T09:16:05;33.20;99.90
19972;DHT22;10147;16.402;102.848;2024-01-11T09:18:36;33.20;99.90
19972;DHT22;10147;16.402;102.848;2024-01-11T09:21:08;33.20;99.90
19972;DHT22;10147;16.402;102.848;2024-01-11T09:23:39;33.20;99.90
19972;DHT22;10147;16.402;102.848;2024-01-11T09:26:09;33.20;99.90
19972;DHT22;10147;16.402;102.848;2024-01-11T09:28:40;33.10;99.90
19972;DHT22;10147;16.402;102.848;2024-01-11T09:31:11;33.00;99.90
19972;DHT22;10147;16.402;102.848;2024-01-11T09:33:41;32.90;99.90
19972;DHT22;10147;16.402;102.848;2024-01-11T09:36:15;32.90;99.90
19972;DHT22;10147;16.402;102.848;2024-01-11T09:38:45;32.80;99.90
19972;DHT22;10147;16.402;102.848;2024-01-11T09:41:15;32.90;99.90
19972;DHT22;10147;16.402;102.848;2024-01-11T09:43:48;32.70;99.90
19972;DHT22;10147;16.402;102.848;2024-01-11T09:46:20;32.70;99.90
19972;DHT22;10147;16.402;102.848;2024-01-11T09:48:50;32.70;99.90
19972;DHT22;10147;16.402;102.848;2024-01-11T09:51:22;32.60;99.90
19972;DHT22;10147;16.402;102.848;2024-01-11T09:53:55;32.70;99.90
19972;DHT22;10147;16.402;102.848;2024-01-11T09:56:31;32.70;99.90
19972;DHT22;10147;16.402;102.848;2024-01-11T09:59:02;32.70;99.90
19972;DHT22;10147;16.402;102.848;2024-01-11T10:01:37;32.60;99.90
19972;DHT22;10147;16.402;102.848;2024-01-11T10:04:08;32.50;99.90
19972;DHT22;10147;16.402;102.848;2024-01-11T10:06:38;32.40;99.90
19972;DHT22;10147;16.402;102.848;2024-01-11T10:09:09;32.40;99.90
19972;DHT22;10147;16.402;102.848;2024-01-11T10:11:39;32.30;99.90
19972;DHT22;10147;16.402;102.848;2024-01-11T10:14:12;32.40;99.90
19972;DHT22;10147;16.402;102.848;2024-01-11T10:16:43;32.30;99.90
19972;DHT22;10147;16.402;102.848;2024-01-11T10:19:13;32.30;99.90
19972;DHT22;10147;16.402;102.848;2024-01-11T10:21:47;32.20;99.90
19972;DHT22;10147;16.402;102.848;2024-01-11T10:24:20;32.10;99.90
19972;DHT22;10147;16.402;102.848;2024-01-11T10:26:59;32.00;99.90
19972;DHT22;10147;16.402;102.848;2024-01-11T10:29:36;32.00;99.90
19972;DHT22;10147;16.402;102.848;2024-01-11T10:32:07;32.00;99.90
19972;DHT22;10147;16.402;102.848;2024-01-11T10:34:37;31.90;99.90
19972;DHT22;10147;16.402;102.848;2024-01-11T10:37:09;31.90;99.90
19972;DHT22;10147;16.402;102.848;2024-01-11T10:39:40;31.90;99.90
19972;DHT22;10147;16.402;102.848;2024-01-11T10:42:12;31.80;99.90
19972;DHT22;10147;16.402;102.848;2024-01-11T10:44:46;31.80;99.90
19972;DHT22;10147;16.402;102.848;2024-01-11T10:47:20;31.80;99.90
19972;DHT22;10147;16.402;102.848;2024-01-11T10:49:52;31.60;99.90
19972;DHT22;10147;16.402;102.848;2024-01-11T10:52:28;31.50;99.90
19972;DHT22;10147;16.402;102.848;2024-01-11T10:55:02;31.60;99.90
19972;DHT22;10147;16.402;102.848;2024-01-11T10:57:35;31.50;99.90
19972;DHT22;10147;16.402;102.848;2024-01-11T11:00:07;31.50;99.90
19972;DHT22;10147;16.402;102.848;2024-01-11T11:02:42;31.30;99.90
19972;DHT22;10147;16.402;102.848;2024-01-11T11:05:13;31.30;99.90
19972;DHT22;10147;16.402;102.848;2024-01-11T11:07:45;31.40;99.90
19972;DHT22;10147;16.402;102.848;2024-01-11T11:10:19;31.30;99.90
19972;DHT22;10147;16.402;102.848;2024-01-11T11:12:50;31.30;99.90
19972;DHT22;10147;16.402;102.848;2024-01-11T11:15:23;31.10;99.90
19972;DHT22;10147;16.402;102.848;2024-01-11T11:17:53;31.00;99.90
19972;DHT22;10147;16.402;102.848;2024-01-11T11:20:24;31.00;99.90
19972;DHT22;10147;16.402;102.848;2024-01-11T11:23:07;30.90;99.90
19972;DHT22;10147;16.402;102.848;2024-01-11T11:25:40;30.90;99.90
19972;DHT22;10147;16.402;102.848;2024-01-11T11:28:12;30.90;99.90
19972;DHT22;10147;16.402;102.848;2024-01-11T11:30:47;30.80;99.90
19972;DHT22;10147;16.402;102.848;2024-01-11T11:33:21;30.70;99.90
19972;DHT22;10147;16.402;102.848;2024-01-11T11:35:54;30.80;99.90
19972;DHT22;10147;16.402;102.848;2024-01-11T11:38:30;30.70;99.90
19972;DHT22;10147;16.402;102.848;2024-01-11T11:41:01;30.60;99.90
19972;DHT22;10147;16.402;102.848;2024-01-11T11:43:32;30.50;99.90
19972;DHT22;10147;16.402;102.848;2024-01-11T11:46:02;30.50;99.90
19972;DHT22;10147;16.402;102.848;2024-01-11T11:48:55;30.50;99.90
19972;DHT22;10147;16.402;102.848;2024-01-11T11:51:26;30.50;99.90
19972;DHT22;10147;16.402;102.848;2024-01-11T11:53:58;30.50;99.90
19972;DHT22;10147;16.402;102.848;2024-01-11T11:56:28;30.40;99.90
19972;DHT22;10147;16.402;102.848;2024-01-11T11:59:05;30.40;99.90
19972;DHT22;10147;16.402;102.848;2024-01-11T12:01:39;30.30;99.90
19972;DHT22;10147;16.402;102.848;2024-01-11T12:04:09;30.20;99.90
19972;DHT22;10147;16.402;102.848;2024-01-11T12:06:39;30.10;99.90
19972;DHT22;10147;16.402;102.848;2024-01-11T12:09:10;30.20;99.90
19972;DHT22;10147;16.402;102.848;2024-01-11T12:11:41;30.10;99.90
19972;DHT22;10147;16.402;102.848;2024-01-11T12:14:16;30.00;99.90
19972;DHT22;10147;16.402;102.848;2024-01-11T12:16:56;30.00;99.90
19972;DHT22;10147;16.402;102.848;2024-01-11T12:19:27;30.00;99.90
19972;DHT22;10147;16.402;102.848;2024-01-11T12:21:59;30.10;99.90
19972;DHT22;10147;16.402;102.848;2024-01-11T12:24:29;30.10;99.90
19972;DHT22;10147;16.402;102.848;2024-01-11T12:27:03;30.00;99.90
19972;DHT22;10147;16.402;102.848;2024-01-11T12:29:33;29.90;99.90
19972;DHT22;10147;16.402;102.848;2024-01-11T12:32:19;29.80;99.90
19972;DHT22;10147;16.402;102.848;2024-01-11T12:34:49;29.90;99.90
19972;DHT22;10147;16.402;102.848;2024-01-11T12:37:21;29.90;99.90
19972;DHT22;10147;16.402;102.848;2024-01-11T12:39:57;29.90;99.90
19972;DHT22;10147;16.402;102.848;2024-01-11T12:42:28;29.60;99.90
19972;DHT22;10147;16.402;102.848;2024-01-11T12:44:58;29.70;99.90
19972;DHT22;10147;16.402;102.848;2024-01-11T12:47:29;29.70;99.90
19972;DHT22;10147;16.402;102.848;2024-01-11T12:49:59;29.60;99.90
19972;DHT22;10147;16.402;102.848;2024-01-11T12:52:29;29.60;99.90
19972;DHT22;10147;16.402;102.848;2024-01-11T12:54:59;29.70;99.90
19972;DHT22;10147;16.402;102.848;2024-01-11T12:57:30;29.60;99.90
19972;DHT22;10147;16.402;102.848;2024-01-11T13:00:22;29.60;99.90
19972;DHT22;10147;16.402;102.848;2024-01-11T13:02:54;29.60;99.90
19972;DHT22;10147;16.402;102.848;2024-01-11T13:05:24;29.60;99.90
19972;DHT22;10147;16.402;102.848;2024-01-11T13:07:54;29.40;99.90
19972;DHT22;10147;16.402;102.848;2024-01-11T13:10:25;29.50;99.90
19972;DHT22;10147;16.402;102.848;2024-01-11T13:12:58;29.30;99.90
19972;DHT22;10147;16.402;102.848;2024-01-11T13:15:36;29.30;99.90
19972;DHT22;10147;16.402;102.848;2024-01-11T13:18:06;29.30;99.90
19972;DHT22;10147;16.402;102.848;2024-01-11T13:20:37;29.20;99.90
19972;DHT22;10147;16.402;102.848;2024-01-11T13:23:15;29.10;99.90
19972;DHT22;10147;16.402;102.848;2024-01-11T13:25:47;29.00;99.90
19972;DHT22;10147;16.402;102.848;2024-01-11T13:28:19;29.00;99.90
19972;DHT22;10147;16.402;102.848;2024-01-11T13:30:49;29.10;99.90
19972;DHT22;10147;16.402;102.848;2024-01-11T13:33:19;29.10;99.90
19972;DHT22;10147;16.402;102.848;2024-01-11T13:35:52;29.10;99.90
19972;DHT22;10147;16.402;102.848;2024-01-11T13:38:23;29.10;99.90
19972;DHT22;10147;16.402;102.848;2024-01-11T13:40:54;29.10;99.90
19972;DHT22;10147;16.402;102.848;2024-01-11T13:43:24;29.10;99.90
19972;DHT22;10147;16.402;102.848;2024-01-11T13:45:54;28.90;99.90
19972;DHT22;10147;16.402;102.848;2024-01-11T13:48:24;28.90;99.90
19972;DHT22;10147;16.402;102.848;2024-01-11T13:50:54;28.70;99.90
19972;DHT22;10147;16.402;102.848;2024-01-11T13:53:25;28.80;99.90
19972;DHT22;10147;16.402;102.848;2024-01-11T13:55:56;28.80;99.90
19972;DHT22;10147;16.402;102.848;2024-01-11T13:58:26;28.70;99.90
19972;DHT22;10147;16.402;102.848;2024-01-11T14:00:59;28.70;99.90
19972;DHT22;10147;16.402;102.848;2024-01-11T14:03:31;28.60;99.90
19972;DHT22;10147;16.402;102.848;2024-01-11T14:06:01;28.20;99.90
19972;DHT22;10147;16.402;102.848;2024-01-11T14:08:32;28.00;99.90
19972;DHT22;10147;16.402;102.848;2024-01-11T14:11:03;28.00;99.90
19972;DHT22;10147;16.402;102.848;2024-01-11T14:13:34;27.90;99.90
19972;DHT22;10147;16.402;102.848;2024-01-11T14:16:04;28.10;99.90
19972;DHT22;10147;16.402;102.848;2024-01-11T14:18:35;28.30;99.90
19972;DHT22;10147;16.402;102.848;2024-01-11T14:21:05;28.30;99.90
19972;DHT22;10147;16.402;102.848;2024-01-11T14:23:35;28.10;99.90
19972;DHT22;10147;16.402;102.848;2024-01-11T14:26:06;27.90;99.90
19972;DHT22;10147;16.402;102.848;2024-01-11T14:28:36;27.90;99.90
19972;DHT22;10147;16.402;102.848;2024-01-11T14:31:12;28.00;99.90
19972;DHT22;10147;16.402;102.848;2024-01-11T14:33:42;27.90;99.90
19972;DHT22;10147;16.402;102.848;2024-01-11T14:36:13;28.00;99.90
19972;DHT22;10147;16.402;102.848;2024-01-11T14:38:44;28.00;99.90
19972;DHT22;10147;16.402;102.848;2024-01-11T14:41:14;28.00;99.90
19972;DHT22;10147;16.402;102.848;2024-01-11T14:43:44;27.90;99.90
19972;DHT22;10147;16.402;102.848;2024-01-11T14:46:15;28.00;99.90
19972;DHT22;10147;16.402;102.848;2024-01-11T14:48:49;27.70;99.90
19972;DHT22;10147;16.402;102.848;2024-01-11T14:51:20;27.50;99.90
19972;DHT22;10147;16.402;102.848;2024-01-11T14:53:53;27.50;99.90
19972;DHT22;10147;16.402;102.848;2024-01-11T14:56:23;27.50;99.90
19972;DHT22;10147;16.402;102.848;2024-01-11T14:58:54;27.50;99.90
19972;DHT22;10147;16.402;102.848;2024-01-11T15:01:26;27.50;99.90
19972;DHT22;10147;16.402;102.848;2024-01-11T15:03:57;27.60;99.90
19972;DHT22;10147;16.402;102.848;2024-01-11T15:06:27;27.70;99.90
19972;DHT22;10147;16.402;102.848;2024-01-11T15:08:58;27.70;99.90
19972;DHT22;10147;16.402;102.848;2024-01-11T15:11:28;27.70;99.90
19972;DHT22;10147;16.402;102.848;2024-01-11T15:14:00;27.40;99.90
19972;DHT22;10147;16.402;102.848;2024-01-11T15:16:30;27.00;99.90
19972;DHT22;10147;16.402;102.848;2024-01-11T15:19:06;26.80;99.90
19972;DHT22;10147;16.402;102.848;2024-01-11T15:21:38;26.80;99.90
19972;DHT22;10147;16.402;102.848;2024-01-11T15:24:16;27.00;99.90
19972;DHT22;10147;16.402;102.848;2024-01-11T15:26:48;27.20;99.90